INFORMACIÓN METAR y TAF
METAR FOR LEBA
ADDS - METARS form results

(1608 UTC 28 November 2022)
Data provider http://aviationweather.gov/metar/data/
 
METAR text: LEBA 281600Z 26002KT CAVOK 18/03 Q1023
Conditions at: LEBA (CORDOBA AIRPORT , ES) observed 1600 UTC 28 November 2022
Temperature: 18.0°C (64°F)
Dewpoint: 3.0°C (37°F) [RH = 37%]
Pressure (altimeter): 30.21 inches Hg (1023.0 mb)
Winds: from the W (260 degrees) at 2 MPH (2 knots; 1.0 m/s)
Visibility: 6 or more miles (10+ km)
Ceiling: ceiling and visibility are OK
Clouds: unknown
Weather: no significant weather observed at this time

METAR text: LEBA 281530Z VRB01KT CAVOK 18/03 Q1023
Conditions at: LEBA (CORDOBA AIRPORT , ES) observed 1530 UTC 28 November 2022
Temperature: 18.0°C (64°F)
Dewpoint: 3.0°C (37°F) [RH = 37%]
Pressure (altimeter): 30.21 inches Hg (1023.0 mb)
Winds: variable direction winds at 1 MPH (1 knots; 0.5 m/s)
Visibility: 6 or more miles (10+ km)
Ceiling: ceiling and visibility are OK
Clouds: unknown
Weather: no significant weather observed at this time

Forecast for: LEBA (CORDOBA AIRPORT , ES)
Text: TAF LEBA 281400Z 2815/2915 VRB03KT CAVOK TX20/2815Z TN05/2907Z
Forecast period: 1500 UTC 28 November 2022 to 1500 UTC 29 November 2022
Forecast type: FROM: standard forecast or significant change
Winds: variable direction winds at 3 MPH (3 knots; 1.5 m/s)
Visibility: 6 or more miles (10+ km)
Ceiling: unknown
Clouds: missing
Weather: no significant weather forecast for this period
Text: PROB30
Forecast period: 1900 to 2300 UTC 28 November 2022
Forecast type: TEMPORARY: The following changes expected for less than half the time period
Winds: from the N (360 degrees) at 12 MPH (10 knots; 5.1 m/s)
Visibility: missing
Ceiling: unknown
Clouds: missing
Weather: no significant weather forecast for this period

 MAPA DE AEROPUERTO

 INFORMACIÓN DE PISTA
Pista 03 Longitud 4527 ft Ancho 148 ft
Elevación 293 ft Umbral desplazado 0 ft Rumbo de pista 29
Pista 21 Longitud 4527 ft Ancho 148 ft
Elevación 297 ft Umbral desplazado 0 ft Rumbo de pista 209

 FRECUANCIAS DEL AEROPUERTO
Tipo CTAF Nombre CTAF Frecuencia 118.3 MHZ

 RADIO AYUDAS DEL AEROPUERTO
Tipo VOR-DME Nombre Cordoba Frecuencia 112400 KHZ
Tipo NDB Nombre Cordoba Frecuencia 366 KHZ




Powered by Virtual Airlines Manager